Weather at Ashland Municipal Airport-Sumner Parker Field

Public forecast

Using degrees Fahrenheit for public forecast. Weather courtesy of forecast.io.

Closest aviation weather report (METAR) to Ashland Municipal Airport-Sumner Parker Field

Report is more than 6 hours old.

Closest report is Rogue Valley International Medford Airport, 14.5 nm (26.9 km) NW.

2022/11/14 15:16 (retrieved 2 years ago)

KMFR 141516Z 00000KT M1/4SM R14/0600V0800FT FZFG VV001 M02/M02 A3025 RMK AO2 SNE1455 P0000 T10221022

Closest aviation forecast (TAF) to Ashland Municipal Airport-Sumner Parker Field

Forecast is more than 12 hours old.

Closest forecast is Rogue Valley International Medford Airport, 14.5 nm (26.9 km) NW.

2023/02/22 18:48 (retrieved 1 year ago)

TAF KMFR 221744Z 2218/2318 31004KT P6SM -SHSNRA SCT030 OVC050 FM230200 26004KT 5SM -SHSN BR OVC025